Eastpoint, FL (32328)

10:28 AM EDT on July 25, 2016 (GMT -0400)
Apalachicola Municipal | | Change Station

Elev 20 ft 29.73 °N, 85.03 °W | Updated 35 minutes ago

Clear
Clear
87 °F
Feels Like 97 °F
N
8
Wind Variable Wind from SE

Today
High -- | Low -- °F
--% Chance of Precip.
Yesterday
High -- | Low -- °F
Precip. -- in
Pressure 30.03 in
Visibility 10.0 miles
Clouds Clear
Heat Index 97 °F
Dew Point 76 °F
Humidity 69%
Rainfall 0.00 in
Snow Depth Not available.
6:55 AM 8:36 PM
Waning Gibbous, 65% visible
METAR KAAF 251353Z AUTO 13007KT 10SM CLR 31/24 A3003 RMK AO2 SLP168 T03060244
Pressure 30.03 in
Visibility 10.0 miles
Clouds Clear
Heat Index 97 °F
Dew Point 76 °F
Humidity 69%
Rainfall 0.00 in
Snow Depth Not available.
6:55 AM 8:36 PM
Waning Gibbous, 65% visible
METAR KAAF 251353Z AUTO 13007KT 10SM CLR 31/24 A3003 RMK AO2 SLP168 T03060244

10-Day Weather Forecast

Almanac

Astronomy

Jul. 25, 2016 Rise Set
Actual Time
Civil Twilight
Nautical Twilight
Astronomical Twilight
Moon
Length of Visible Light
Length of Day
Tomorrow will be .
, % of the Moon is Illuminated

Today's Extremes

State Highs State Lows

Community

WunderPhotos

Upload Photos

1,927,305 photos uploaded!

WunderBlog® & News

Nearby

Air Quality

  Air Quality AQ Index Pollutant
Not available.

Snow Depth

Station Depth Elevation

Earthquake Activity

City Distance Mag. Time & Date
Minimum magnitude displayed is 2.5.

Coastal Water Temperatures

Place Temperature

Stations

Nearby Weather Stations

Station Location Temp. Windchill Dew Point Humidity Wind Precip. Elev Updated Type
                   

Watches & Warnings

There are currently no watches in effect.